• Join FlightAware (Why Join?)
  • Login
  • US Flag 
03:28PM EDT


 

Airport Tracker/Info


-or-


 

Live Flight TrackerFlight Track Log ✈ SWA3228 ✈ 27-Sep-2013 ✈ KBNA - KBOS

Flight Track Log - Related Links

Times and Time Zones

All times are in EDT time to prevent confusion due to time zone crossing. See the SWA3228 flight status page for this flight to view local times or setup timezone preferences in your user account.

Time Position Orientation Groundspeed Altitude Reporting Facility
EDT Latitude Longitude Course Direction KTS MPH feet Rate Location/Type
03:34PM 36.1500 -86.6333 39° Northeast 174 200 2,100  Level Nashville TRACON
03:35PM 36.1667 -86.5500 76° East 256 295 3,900 2,880 Climbing Nashville TRACON
03:36PM 36.1833 -86.4667 76° East 290 334 7,900 3,480 Climbing Nashville TRACON
03:37PM 36.1819 -86.3714 91° East 295 339 11,000 2,700 Climbing Memphis Center
03:38PM 36.1886 -86.2553 86° East 319 367 13,500 2,460 Climbing Memphis Center
03:39PM 36.1950 -86.1289 86° East 352 405 16,000 2,400 Climbing Memphis Center
03:40PM 36.2322 -86.0036 70° East 368 423 18,400 2,340 Climbing Memphis Center
03:42PM 36.2944 -85.8583 62° Northeast 400 460 21,300 2,220 Climbing Indianapolis Center
03:43PM 36.3522 -85.7339 60° Northeast 412 474 23,500 2,220 Climbing Indianapolis Center
03:44PM 36.4244 -85.5808 60° Northeast 426 490 26,000 1,680 Climbing Indianapolis Center
03:45PM 36.4878 -85.4494 59° Northeast 437 503 27,000 540 Climbing Indianapolis Center
03:46PM 36.5497 -85.3192 59° Northeast 436 502 27,200 960 Climbing Indianapolis Center
03:47PM 36.6117 -85.1867 60° Northeast 438 504 29,100 2,040 Climbing Indianapolis Center
03:48PM 36.6572 -85.0417 69° East 444 511 31,500 2,100 Climbing Indianapolis Center
03:49PM 36.7014 -84.9006 69° East 437 503 33,500 1,860 Climbing Indianapolis Center
03:50PM 36.7428 -84.7619 70° East 427 491 35,400 1,740 Climbing Indianapolis Center
03:51PM 36.7928 -84.5964 69° East 422 486 37,200 1,380 Climbing Indianapolis Center
03:52PM 36.8297 -84.4744 69° East 419 482 38,300 840 Climbing Indianapolis Center
03:53PM 36.8711 -84.3369 69° East 420 483 39,000 300 Climbing Indianapolis Center
03:54PM 36.9183 -84.1778 70° East 417 480 39,000  Level Indianapolis Center
03:55PM 36.9594 -84.0425 69° East 415 478 39,000  Level Indianapolis Center
03:56PM 36.9997 -83.9067 70° East 414 476 39,000  Level Indianapolis Center
03:57PM 37.0400 -83.7733 69° East 410 472 39,000  Level Indianapolis Center
03:58PM 37.0789 -83.6369 70° East 411 473 39,000  Level Indianapolis Center
03:59PM 37.1253 -83.4797 70° East 409 471 39,000  Level Indianapolis Center
04:00PM 37.1642 -83.3461 70° East 407 468 39,000  Level Indianapolis Center
04:01PM 37.2033 -83.2117 70° East 408 470 39,000  Level Indianapolis Center
04:02PM 37.2425 -83.0781 70° East 404 465 39,000  Level Indianapolis Center
04:03PM 37.2844 -82.9439 69° East 408 470 39,000  Level Indianapolis Center
04:04PM 37.3253 -82.8097 69° East 409 471 39,000  Level Indianapolis Center
04:05PM 37.3664 -82.6764 69° East 408 470 39,000  Level Indianapolis Center
04:06PM 37.4139 -82.5200 69° East 409 471 39,000  Level Indianapolis Center
04:07PM 37.4542 -82.3869 69° East 406 467 39,000  Level Indianapolis Center
04:08PM 37.4942 -82.2519 69° East 409 471 39,000  Level Indianapolis Center
04:10PM 37.5353 -82.1186 69° East 408 470 39,000  Level Indianapolis Center
04:11PM 37.5742 -81.9844 70° East 407 468 39,000  Level Indianapolis Center
04:12PM 37.6139 -81.8506 69° East 407 468 39,000  Level Indianapolis Center
04:13PM 37.6603 -81.6931 70° East 409 471 39,000  Level Indianapolis Center
04:14PM 37.7017 -81.5547 69° East 419 482 39,000  Level Indianapolis Center
04:15PM 37.7406 -81.4222 70° East 420 483 39,000  Level Indianapolis Center
04:16PM 37.7792 -81.2881 70° East 418 481 39,000  Level Indianapolis Center
04:17PM 37.8247 -81.1256 70° East 421 484 39,000  Level Indianapolis Center
04:18PM 37.8611 -80.9986 70° East 421 484 39,000  Level Indianapolis Center
04:19PM 37.9008 -80.8594 70° East 422 486 39,000  Level Indianapolis Center
04:20PM 37.9492 -80.6906 70° East 426 490 39,000  Level Indianapolis Center
04:21PM 37.9889 -80.5489 70° East 427 491 39,000  Level Indianapolis Center
04:22PM 38.0211 -80.4394 69° East 421 484 39,000  Level Washington Center
04:23PM 38.0622 -80.2969 70° East 421 484 39,000  Level Washington Center
04:24PM 38.1056 -80.1439 70° East 421 484 39,000  Level Washington Center
04:25PM 38.1464 -80.0011 70° East 421 484 39,000  Level Washington Center
04:26PM 38.1850 -79.8581 71° East 421 484 39,000  Level Washington Center
04:27PM 38.2253 -79.7178 70° East 421 484 39,000  Level Washington Center
04:28PM 38.2589 -79.5875 72° East 421 484 39,000  Level Washington Center
04:29PM 38.2989 -79.4492 70° East 421 484 39,000  Level Washington Center
04:30PM 38.3347 -79.3081 72° East 421 484 39,000  Level Washington Center
04:31PM 38.3725 -79.1669 71° East 421 484 39,000  Level Washington Center
04:32PM 38.4097 -79.0311 71° East 421 484 39,000  Level Washington Center
04:33PM 38.4453 -78.8764 74° East 421 484 39,000  Level Washington Center
04:34PM 38.4778 -78.7531 71° East 415 478 39,000  Level Washington Center
04:35PM 38.5147 -78.6114 72° East 415 478 39,000  Level Washington Center
04:36PM 38.5517 -78.4722 71° East 415 478 39,000  Level Washington Center
04:37PM 38.5883 -78.3275 72° East 415 478 39,000  Level Washington Center
04:38PM 38.6247 -78.1881 71° East 415 478 39,000  Level Washington Center
04:39PM 38.6611 -78.0483 72° East 415 478 39,000  Level Washington Center
04:40PM 38.6950 -77.9086 73° East 415 478 39,000  Level Washington Center
04:41PM 38.7314 -77.7500 74° East 420 483 39,000  Level Washington Center
04:42PM 38.7714 -77.6072 70° East 420 483 39,000  Level Washington Center
04:43PM 38.8050 -77.4617 73° East 420 483 39,000  Level Washington Center
04:44PM 38.8425 -77.3267 70° East 415 478 39,000  Level Washington Center
04:45PM 38.8778 -77.1836 72° East 409 471 39,000  Level Washington Center
04:46PM 38.9108 -77.0456 73° East 409 471 39,000  Level Washington Center
04:47PM 38.9458 -76.9022 73° East 409 471 39,000  Level Washington Center
04:48PM 38.9806 -76.7611 72° East 414 476 39,000  Level Washington Center
04:49PM 39.0153 -76.6175 73° East 414 476 39,000  Level Washington Center
04:50PM 39.0497 -76.4708 73° East 420 483 39,000  Level Washington Center
04:51PM 39.0842 -76.3269 73° East 420 483 39,000  Level Washington Center
04:52PM 39.1183 -76.1828 73° East 420 483 39,000  Level Washington Center
04:53PM 39.1522 -76.0519 71° East 420 483 39,000  Level Washington Center
04:54PM 39.1858 -75.9103 73° East 420 483 39,000  Level Washington Center
04:55PM 39.2550 -75.7981 51° Northeast 403 464 39,000  Level Washington Center
04:56PM 39.3342 -75.6961 45° Northeast 398 458 39,000  Level Washington Center
04:57PM 39.4136 -75.5942 45° Northeast 398 458 39,000  Level Washington Center
04:58PM 39.4928 -75.4919 45° Northeast 398 458 39,000  Level Washington Center
04:59PM 39.5758 -75.3869 44° Northeast 403 464 39,000  Level Washington Center
05:01PM 39.7514 -75.1369 48° Northeast 407 468 39,000  Level New York Center
05:02PM 39.8303 -75.0283 47° Northeast 421 484 39,000  Level New York Center
05:03PM 39.9094 -74.9167 47° Northeast 421 484 39,000  Level New York Center
05:04PM 39.9903 -74.8078 46° Northeast 421 484 39,000 -720 Level New York Center
05:05PM 40.0692 -74.6931 48° Northeast 421 484 37,600 -1,080 Descending New York Center
05:06PM 40.1519 -74.5864 45° Northeast 421 484 36,900 -840 Descending New York Center
05:07PM 40.2483 -74.5047 33° Northeast 409 471 36,000 -960 Descending New York Center
05:08PM 40.3506 -74.4314 29° Northeast 409 471 35,100 -900 Descending New York Center
05:09PM 40.4450 -74.3461 34° Northeast 409 471 34,300 -600 Descending New York Center
05:10PM 40.5050 -74.2183 58° Northeast 402 463 34,000 -180 Descending New York Center
05:11PM 40.5653 -74.0847 59° Northeast 407 468 34,000 -240 Level New York Center
05:12PM 40.6228 -73.9592 59° Northeast 407 468 33,600 -1,860 Descending New York Center
05:14PM 40.7450 -73.7003 58° Northeast 399 459 28,400 -2,400 Descending Boston Center
05:15PM 40.7919 -73.5806 63° Northeast 405 466 26,200 -2,220 Descending Boston Center
05:16PM 40.8453 -73.4581 60° Northeast 399 459 24,100 -1,320 Descending Boston Center
05:17PM 40.9150 -73.3547 48° Northeast 386 444 23,700 -600 Descending Boston Center
05:18PM 40.9844 -73.2539 48° Northeast 374 430 23,000 -360 Descending Boston Center
05:19PM 41.0561 -73.1503 47° Northeast 374 430 23,000  Level Boston Center
05:20PM 41.1275 -73.0464 48° Northeast 374 430 23,000  Level Boston Center
05:21PM 41.1967 -72.9394 49° Northeast 380 437 23,000  Level Boston Center
05:22PM 41.2514 -72.8211 58° Northeast 380 437 23,000  Level Boston Center
05:23PM 41.3081 -72.6750 63° Northeast 386 444 23,000  Level Boston Center
05:24PM 41.3561 -72.5425 64° Northeast 386 444 23,000  Level Boston Center
05:25PM 41.4022 -72.4181 64° Northeast 380 437 23,000  Level Boston Center
05:26PM 41.4500 -72.2878 64° Northeast 380 437 23,000 -120 Level Boston Center
05:27PM 41.4914 -72.1767 64° Northeast 380 437 22,800 -1,320 Descending Boston Center
05:28PM 41.5369 -72.0519 64° Northeast 380 437 20,400 -2,220 Descending Boston Center
05:29PM 41.5842 -71.9100 66° East 380 437 18,300 -1,980 Descending Boston Center
05:30PM 41.6150 -71.8042 69° East 361 415 16,500 -2,040 Descending Boston Center
05:31PM 41.6539 -71.6733 68° East 348 400 14,300 -2,040 Descending Boston Center
05:32PM 41.6822 -71.5644 71° East 341 392 12,500 -1,620 Descending Boston Center
05:33PM 41.7186 -71.4472 67° East 326 375 11,100 -780 Descending Boston Center
05:34PM 41.7556 -71.3603 60° Northeast 298 343 11,000 -240 Descending Boston Center
05:35PM 41.8111 -71.2925 42° Northeast 261 300 10,700 -1,140 Descending Boston Center
05:36PM 41.8692 -71.2581 24° Northeast 228 262 8,800 -1,380 Descending Boston Center
05:37PM 41.9250 -71.2181 28° Northeast 223 257 8,000 -1,080 Descending Boston Center
05:38PM 41.9831 -71.1917 19° North 223 257 6,700 -1,080 Descending Boston Center
05:39PM 42.0411 -71.1653 19° North 223 257 5,900 -780 Descending Boston Center
05:40PM 42.0928 -71.1364 23° Northeast 207 238 5,200 -660 Descending Boston Center
05:41PM 42.1383 -71.1158 18° North 183 211 4,600 -720 Descending Boston Center
05:41PM 42.1667 -71.1000 22° Northeast 163 188 4,200 -900 Descending KA90
05:43PM 42.2167 -71.0833 14° North 167 192 3,200 -960 Descending KA90
05:44PM 42.2500 -71.0500 37° Northeast 165 190 2,200 -900 Descending KA90
05:44PM 42.2833 -71.0333 20° North 167 192 1,500 -840 Descending KA90
05:46PM 42.3333 -71.0167 14° North 131 151 600 -840 Descending KA90
05:48PM 42.3500 -71.0000 North  Level FlightAware Approximate
05:55PM 42.3630 -71.0064 North  Level Estimated